sensor_id;sensor_type;location;lat;lon;timestamp;P1;durP1;ratioP1;P2;durP2;ratioP2
21804;SDS011;11064;47.102;15.452;2022-08-20T05:02:06;12.52;;;6.20;;
21804;SDS011;11064;47.102;15.452;2022-08-20T05:04:32;12.55;;;6.03;;
21804;SDS011;11064;47.102;15.452;2022-08-20T05:06:57;12.18;;;6.07;;
21804;SDS011;11064;47.102;15.452;2022-08-20T05:09:23;12.45;;;6.20;;
21804;SDS011;11064;47.102;15.452;2022-08-20T05:11:49;15.23;;;5.82;;
21804;SDS011;11064;47.102;15.452;2022-08-20T05:14:15;10.10;;;5.63;;
21804;SDS011;11064;47.102;15.452;2022-08-20T05:16:41;10.45;;;5.50;;
21804;SDS011;11064;47.102;15.452;2022-08-20T05:19:08;11.50;;;5.28;;
21804;SDS011;11064;47.102;15.452;2022-08-20T05:21:36;11.02;;;5.20;;
21804;SDS011;11064;47.102;15.452;2022-08-20T05:24:02;10.90;;;5.40;;
21804;SDS011;11064;47.102;15.452;2022-08-20T05:26:28;9.18;;;5.15;;
21804;SDS011;11064;47.102;15.452;2022-08-20T05:28:54;9.75;;;5.03;;
21804;SDS011;11064;47.102;15.452;2022-08-20T05:31:19;8.70;;;4.85;;
21804;SDS011;11064;47.102;15.452;2022-08-20T05:33:45;10.13;;;4.85;;
21804;SDS011;11064;47.102;15.452;2022-08-20T05:36:15;10.23;;;4.73;;
21804;SDS011;11064;47.102;15.452;2022-08-20T05:38:40;7.00;;;4.10;;
21804;SDS011;11064;47.102;15.452;2022-08-20T05:41:06;10.45;;;4.65;;
21804;SDS011;11064;47.102;15.452;2022-08-20T05:43:32;13.32;;;5.18;;
21804;SDS011;11064;47.102;15.452;2022-08-20T05:45:58;11.95;;;4.53;;
21804;SDS011;11064;47.102;15.452;2022-08-20T05:48:25;10.18;;;4.78;;
21804;SDS011;11064;47.102;15.452;2022-08-20T05:50:51;8.68;;;4.45;;
21804;SDS011;11064;47.102;15.452;2022-08-20T05:53:18;7.55;;;3.90;;
21804;SDS011;11064;47.102;15.452;2022-08-20T05:55:45;16.13;;;4.55;;
21804;SDS011;11064;47.102;15.452;2022-08-20T05:58:21;9.38;;;4.70;;
21804;SDS011;11064;47.102;15.452;2022-08-20T06:00:52;11.32;;;4.50;;
21804;SDS011;11064;47.102;15.452;2022-08-20T06:03:19;10.57;;;4.43;;
21804;SDS011;11064;47.102;15.452;2022-08-20T06:06:04;12.30;;;4.20;;
21804;SDS011;11064;47.102;15.452;2022-08-20T06:08:30;10.55;;;4.03;;
21804;SDS011;11064;47.102;15.452;2022-08-20T06:10:56;7.85;;;3.70;;
21804;SDS011;11064;47.102;15.452;2022-08-20T06:13:22;10.65;;;4.45;;
21804;SDS011;11064;47.102;15.452;2022-08-20T06:15:48;8.07;;;3.50;;
21804;SDS011;11064;47.102;15.452;2022-08-20T06:18:14;7.30;;;3.42;;
21804;SDS011;11064;47.102;15.452;2022-08-20T06:20:40;9.25;;;3.45;;
21804;SDS011;11064;47.102;15.452;2022-08-20T06:23:06;7.97;;;3.28;;
21804;SDS011;11064;47.102;15.452;2022-08-20T06:25:33;7.43;;;3.53;;
21804;SDS011;11064;47.102;15.452;2022-08-20T06:28:00;5.07;;;3.33;;
21804;SDS011;11064;47.102;15.452;2022-08-20T06:30:27;9.20;;;4.20;;
21804;SDS011;11064;47.102;15.452;2022-08-20T06:32:53;9.85;;;4.45;;
21804;SDS011;11064;47.102;15.452;2022-08-20T06:35:18;9.05;;;3.92;;
21804;SDS011;11064;47.102;15.452;2022-08-20T06:37:44;7.65;;;4.32;;
21804;SDS011;11064;47.102;15.452;2022-08-20T06:40:15;12.07;;;4.18;;
21804;SDS011;11064;47.102;15.452;2022-08-20T06:42:47;8.60;;;4.18;;
21804;SDS011;11064;47.102;15.452;2022-08-20T06:45:16;12.93;;;4.32;;
21804;SDS011;11064;47.102;15.452;2022-08-20T06:47:51;10.35;;;3.90;;
21804;SDS011;11064;47.102;15.452;2022-08-20T06:50:24;9.60;;;4.05;;
21804;SDS011;11064;47.102;15.452;2022-08-20T06:52:52;9.18;;;3.80;;
21804;SDS011;11064;47.102;15.452;2022-08-20T06:55:18;8.48;;;4.05;;
21804;SDS011;11064;47.102;15.452;2022-08-20T06:57:45;8.80;;;4.13;;
21804;SDS011;11064;47.102;15.452;2022-08-20T07:00:16;9.90;;;3.92;;
21804;SDS011;11064;47.102;15.452;2022-08-20T07:02:44;11.63;;;3.97;;
21804;SDS011;11064;47.102;15.452;2022-08-20T07:05:12;9.85;;;4.00;;
21804;SDS011;11064;47.102;15.452;2022-08-20T07:07:38;7.28;;;3.53;;
21804;SDS011;11064;47.102;15.452;2022-08-20T07:10:10;7.53;;;3.40;;
21804;SDS011;11064;47.102;15.452;2022-08-20T07:12:37;9.05;;;3.83;;
21804;SDS011;11064;47.102;15.452;2022-08-20T07:15:07;5.72;;;3.20;;
21804;SDS011;11064;47.102;15.452;2022-08-20T07:17:34;5.57;;;3.30;;
21804;SDS011;11064;47.102;15.452;2022-08-20T07:20:08;8.25;;;3.13;;
21804;SDS011;11064;47.102;15.452;2022-08-20T07:22:36;6.75;;;3.42;;
21804;SDS011;11064;47.102;15.452;2022-08-20T07:25:05;9.55;;;3.78;;
21804;SDS011;11064;47.102;15.452;2022-08-20T07:27:33;9.80;;;3.45;;
21804;SDS011;11064;47.102;15.452;2022-08-20T07:29:59;6.13;;;3.10;;
21804;SDS011;11064;47.102;15.452;2022-08-20T07:32:44;7.75;;;3.42;;
21804;SDS011;11064;47.102;15.452;2022-08-20T07:35:11;10.40;;;3.47;;
21804;SDS011;11064;47.102;15.452;2022-08-20T07:37:40;5.18;;;2.83;;
21804;SDS011;11064;47.102;15.452;2022-08-20T07:40:11;5.78;;;3.13;;
21804;SDS011;11064;47.102;15.452;2022-08-20T07:42:43;8.93;;;2.83;;
21804;SDS011;11064;47.102;15.452;2022-08-20T07:45:10;4.00;;;2.40;;
21804;SDS011;11064;47.102;15.452;2022-08-20T07:47:37;5.43;;;2.67;;
21804;SDS011;11064;47.102;15.452;2022-08-20T07:50:06;7.60;;;2.92;;
21804;SDS011;11064;47.102;15.452;2022-08-20T07:52:36;5.53;;;2.60;;
21804;SDS011;11064;47.102;15.452;2022-08-20T07:55:03;7.22;;;2.78;;
21804;SDS011;11064;47.102;15.452;2022-08-20T07:57:30;4.53;;;2.30;;
21804;SDS011;11064;47.102;15.452;2022-08-20T07:59:56;5.57;;;2.10;;
21804;SDS011;11064;47.102;15.452;2022-08-20T08:02:23;3.63;;;1.90;;
21804;SDS011;11064;47.102;15.452;2022-08-20T08:04:53;3.83;;;1.90;;
21804;SDS011;11064;47.102;15.452;2022-08-20T08:07:19;3.53;;;2.05;;
21804;SDS011;11064;47.102;15.452;2022-08-20T08:09:47;4.18;;;1.83;;
21804;SDS011;11064;47.102;15.452;2022-08-20T08:12:14;5.18;;;1.70;;
21804;SDS011;11064;47.102;15.452;2022-08-20T08:14:41;3.13;;;1.75;;
21804;SDS011;11064;47.102;15.452;2022-08-20T08:17:10;4.00;;;1.75;;
21804;SDS011;11064;47.102;15.452;2022-08-20T08:19:41;4.05;;;1.40;;
21804;SDS011;11064;47.102;15.452;2022-08-20T08:22:11;1.48;;;1.20;;
21804;SDS011;11064;47.102;15.452;2022-08-20T08:24:39;1.92;;;1.30;;
21804;SDS011;11064;47.102;15.452;2022-08-20T08:27:06;1.52;;;0.90;;
21804;SDS011;11064;47.102;15.452;2022-08-20T08:29:33;1.05;;;0.82;;
21804;SDS011;11064;47.102;15.452;2022-08-20T08:32:02;2.08;;;1.00;;
21804;SDS011;11064;47.102;15.452;2022-08-20T08:34:30;3.03;;;1.23;;
21804;SDS011;11064;47.102;15.452;2022-08-20T08:36:57;3.45;;;0.95;;
21804;SDS011;11064;47.102;15.452;2022-08-20T08:39:27;1.70;;;0.80;;
21804;SDS011;11064;47.102;15.452;2022-08-20T08:41:54;1.52;;;0.57;;
21804;SDS011;11064;47.102;15.452;2022-08-20T08:44:23;1.17;;;0.70;;
21804;SDS011;11064;47.102;15.452;2022-08-20T08:47:18;1.25;;;0.70;;
21804;SDS011;11064;47.102;15.452;2022-08-20T08:49:53;1.20;;;0.60;;
21804;SDS011;11064;47.102;15.452;2022-08-20T08:52:23;0.90;;;0.63;;
21804;SDS011;11064;47.102;15.452;2022-08-20T08:54:55;0.80;;;0.80;;
21804;SDS011;11064;47.102;15.452;2022-08-20T08:57:23;1.20;;;0.60;;
21804;SDS011;11064;47.102;15.452;2022-08-20T08:59:58;4.50;;;0.70;;
21804;SDS011;11064;47.102;15.452;2022-08-20T09:02:31;0.60;;;0.60;;
21804;SDS011;11064;47.102;15.452;2022-08-20T09:05:00;1.75;;;0.60;;
21804;SDS011;11064;47.102;15.452;2022-08-20T09:07:37;0.90;;;0.50;;
21804;SDS011;11064;47.102;15.452;2022-08-20T09:10:03;0.40;;;0.40;;
21804;SDS011;11064;47.102;15.452;2022-08-20T09:12:31;0.63;;;0.63;;
21804;SDS011;11064;47.102;15.452;2022-08-20T09:14:57;0.80;;;0.50;;
21804;SDS011;11064;47.102;15.452;2022-08-20T09:17:23;1.75;;;0.60;;
21804;SDS011;11064;47.102;15.452;2022-08-20T09:19:49;0.82;;;0.50;;
21804;SDS011;11064;47.102;15.452;2022-08-20T09:22:21;1.00;;;0.50;;
21804;SDS011;11064;47.102;15.452;2022-08-20T09:24:50;0.90;;;0.63;;
21804;SDS011;11064;47.102;15.452;2022-08-20T09:27:15;1.23;;;0.68;;
21804;SDS011;11064;47.102;15.452;2022-08-20T09:29:41;0.70;;;0.70;;
21804;SDS011;11064;47.102;15.452;2022-08-20T09:32:09;0.70;;;0.50;;
21804;SDS011;11064;47.102;15.452;2022-08-20T09:34:38;1.15;;;0.52;;
21804;SDS011;11064;47.102;15.452;2022-08-20T09:37:07;1.38;;;0.75;;
21804;SDS011;11064;47.102;15.452;2022-08-20T09:39:34;0.63;;;0.50;;
21804;SDS011;11064;47.102;15.452;2022-08-20T09:42:07;0.60;;;0.50;;
21804;SDS011;11064;47.102;15.452;2022-08-20T09:44:34;0.95;;;0.55;;
21804;SDS011;11064;47.102;15.452;2022-08-20T09:47:00;1.75;;;0.60;;
21804;SDS011;11064;47.102;15.452;2022-08-20T09:49:26;1.73;;;0.60;;
21804;SDS011;11064;47.102;15.452;2022-08-20T09:51:51;1.35;;;0.60;;
21804;SDS011;11064;47.102;15.452;2022-08-20T09:54:18;0.82;;;0.60;;
21804;SDS011;11064;47.102;15.452;2022-08-20T09:56:45;0.88;;;0.55;;
21804;SDS011;11064;47.102;15.452;2022-08-20T09:59:11;0.73;;;0.60;;
21804;SDS011;11064;47.102;15.452;2022-08-20T10:01:40;3.25;;;0.68;;
21804;SDS011;11064;47.102;15.452;2022-08-20T10:04:06;1.25;;;0.50;;
21804;SDS011;11064;47.102;15.452;2022-08-20T10:06:36;1.30;;;0.63;;
21804;SDS011;11064;47.102;15.452;2022-08-20T10:09:04;0.95;;;0.52;;
21804;SDS011;11064;47.102;15.452;2022-08-20T10:11:30;0.50;;;0.43;;
21804;SDS011;11064;47.102;15.452;2022-08-20T10:13:56;1.08;;;0.65;;
21804;SDS011;11064;47.102;15.452;2022-08-20T10:16:22;0.60;;;0.52;;
21804;SDS011;11064;47.102;15.452;2022-08-20T10:18:48;2.63;;;0.60;;
21804;SDS011;11064;47.102;15.452;2022-08-20T10:21:14;0.63;;;0.63;;
21804;SDS011;11064;47.102;15.452;2022-08-20T10:23:41;2.05;;;0.60;;
21804;SDS011;11064;47.102;15.452;2022-08-20T10:26:08;0.95;;;0.50;;
21804;SDS011;11064;47.102;15.452;2022-08-20T10:28:34;1.85;;;0.43;;
21804;SDS011;11064;47.102;15.452;2022-08-20T10:31:00;0.75;;;0.40;;
21804;SDS011;11064;47.102;15.452;2022-08-20T10:33:28;1.05;;;0.40;;
21804;SDS011;11064;47.102;15.452;2022-08-20T10:35:54;1.02;;;0.50;;
21804;SDS011;11064;47.102;15.452;2022-08-20T10:38:20;0.40;;;0.40;;
21804;SDS011;11064;47.102;15.452;2022-08-20T10:40:45;1.27;;;0.57;;
21804;SDS011;11064;47.102;15.452;2022-08-20T10:43:11;1.60;;;0.55;;
21804;SDS011;11064;47.102;15.452;2022-08-20T10:45:37;1.02;;;0.60;;
21804;SDS011;11064;47.102;15.452;2022-08-20T10:48:02;1.35;;;0.70;;
21804;SDS011;11064;47.102;15.452;2022-08-20T10:50:28;2.53;;;0.70;;
21804;SDS011;11064;47.102;15.452;2022-08-20T10:52:54;1.40;;;0.70;;
21804;SDS011;11064;47.102;15.452;2022-08-20T10:55:19;1.63;;;0.60;;
21804;SDS011;11064;47.102;15.452;2022-08-20T10:57:45;1.95;;;0.77;;
21804;SDS011;11064;47.102;15.452;2022-08-20T11:00:12;4.32;;;1.00;;
21804;SDS011;11064;47.102;15.452;2022-08-20T11:02:40;2.60;;;0.98;;
21804;SDS011;11064;47.102;15.452;2022-08-20T11:05:07;1.65;;;0.90;;
21804;SDS011;11064;47.102;15.452;2022-08-20T11:07:37;3.15;;;0.93;;
21804;SDS011;11064;47.102;15.452;2022-08-20T11:10:05;2.78;;;0.90;;
21804;SDS011;11064;47.102;15.452;2022-08-20T11:12:32;2.10;;;0.80;;
21804;SDS011;11064;47.102;15.452;2022-08-20T11:14:58;1.95;;;1.00;;
21804;SDS011;11064;47.102;15.452;2022-08-20T11:17:26;0.77;;;0.60;;
21804;SDS011;11064;47.102;15.452;2022-08-20T11:19:56;2.38;;;0.80;;
21804;SDS011;11064;47.102;15.452;2022-08-20T11:22:23;1.58;;;0.77;;
21804;SDS011;11064;47.102;15.452;2022-08-20T11:24:50;1.35;;;0.70;;
21804;SDS011;11064;47.102;15.452;2022-08-20T11:27:23;1.60;;;0.65;;
21804;SDS011;11064;47.102;15.452;2022-08-20T11:29:51;1.15;;;0.75;;
21804;SDS011;11064;47.102;15.452;2022-08-20T11:32:17;0.73;;;0.70;;
21804;SDS011;11064;47.102;15.452;2022-08-20T11:34:44;1.55;;;0.50;;
21804;SDS011;11064;47.102;15.452;2022-08-20T11:37:11;0.95;;;0.70;;
21804;SDS011;11064;47.102;15.452;2022-08-20T11:39:38;0.38;;;0.38;;
21804;SDS011;11064;47.102;15.452;2022-08-20T11:42:04;0.30;;;0.30;;
21804;SDS011;11064;47.102;15.452;2022-08-20T11:44:30;0.77;;;0.47;;
21804;SDS011;11064;47.102;15.452;2022-08-20T11:46:58;0.50;;;0.43;;
21804;SDS011;11064;47.102;15.452;2022-08-20T11:49:28;1.23;;;0.40;;
21804;SDS011;11064;47.102;15.452;2022-08-20T11:51:54;0.30;;;0.30;;
21804;SDS011;11064;47.102;15.452;2022-08-20T11:54:20;2.58;;;1.23;;
21804;SDS011;11064;47.102;15.452;2022-08-20T11:56:46;3.80;;;1.58;;
21804;SDS011;11064;47.102;15.452;2022-08-20T11:59:12;2.20;;;1.40;;
21804;SDS011;11064;47.102;15.452;2022-08-20T12:01:38;5.25;;;1.55;;
21804;SDS011;11064;47.102;15.452;2022-08-20T12:04:04;6.50;;;1.70;;
21804;SDS011;11064;47.102;15.452;2022-08-20T12:06:30;2.35;;;1.60;;
21804;SDS011;11064;47.102;15.452;2022-08-20T12:08:56;2.40;;;1.55;;
21804;SDS011;11064;47.102;15.452;2022-08-20T12:11:22;3.47;;;1.60;;
21804;SDS011;11064;47.102;15.452;2022-08-20T12:13:48;5.55;;;1.77;;
21804;SDS011;11064;47.102;15.452;2022-08-20T12:16:14;1.38;;;0.90;;
21804;SDS011;11064;47.102;15.452;2022-08-20T12:18:40;2.03;;;1.10;;
21804;SDS011;11064;47.102;15.452;2022-08-20T12:21:06;4.93;;;1.50;;
21804;SDS011;11064;47.102;15.452;2022-08-20T12:23:32;2.88;;;1.50;;
21804;SDS011;11064;47.102;15.452;2022-08-20T12:25:57;2.83;;;1.60;;
21804;SDS011;11064;47.102;15.452;2022-08-20T12:28:27;5.22;;;1.90;;
21804;SDS011;11064;47.102;15.452;2022-08-20T12:30:56;3.85;;;0.90;;
21804;SDS011;11064;47.102;15.452;2022-08-20T12:33:21;2.08;;;1.10;;
21804;SDS011;11064;47.102;15.452;2022-08-20T12:35:47;1.77;;;0.80;;
21804;SDS011;11064;47.102;15.452;2022-08-20T12:38:13;0.80;;;0.40;;
21804;SDS011;11064;47.102;15.452;2022-08-20T12:40:39;0.60;;;0.52;;
21804;SDS011;11064;47.102;15.452;2022-08-20T12:43:05;0.40;;;0.40;;
21804;SDS011;11064;47.102;15.452;2022-08-20T12:45:31;0.73;;;0.50;;
21804;SDS011;11064;47.102;15.452;2022-08-20T12:48:01;0.45;;;0.45;;
21804;SDS011;11064;47.102;15.452;2022-08-20T12:50:33;0.73;;;0.30;;
21804;SDS011;11064;47.102;15.452;2022-08-20T12:53:00;0.52;;;0.40;;
21804;SDS011;11064;47.102;15.452;2022-08-20T12:55:26;3.53;;;0.40;;
21804;SDS011;11064;47.102;15.452;2022-08-20T12:57:54;0.77;;;0.30;;
21804;SDS011;11064;47.102;15.452;2022-08-20T13:02:55;0.20;;;0.20;;
21804;SDS011;11064;47.102;15.452;2022-08-20T13:05:22;0.63;;;0.22;;
21804;SDS011;11064;47.102;15.452;2022-08-20T13:07:49;0.20;;;0.20;;
21804;SDS011;11064;47.102;15.452;2022-08-20T13:10:23;0.17;;;0.17;;
21804;SDS011;11064;47.102;15.452;2022-08-20T13:12:51;0.15;;;0.10;;
21804;SDS011;11064;47.102;15.452;2022-08-20T13:15:18;0.10;;;0.10;;
21804;SDS011;11064;47.102;15.452;2022-08-20T13:17:44;0.10;;;0.10;;
21804;SDS011;11064;47.102;15.452;2022-08-20T13:20:14;0.28;;;0.17;;
21804;SDS011;11064;47.102;15.452;2022-08-20T13:22:41;0.30;;;0.17;;
21804;SDS011;11064;47.102;15.452;2022-08-20T13:25:07;0.20;;;0.20;;
21804;SDS011;11064;47.102;15.452;2022-08-20T13:27:35;0.20;;;0.20;;
21804;SDS011;11064;47.102;15.452;2022-08-20T13:30:03;0.22;;;0.00;;
21804;SDS011;11064;47.102;15.452;2022-08-20T13:32:31;1.35;;;0.00;;
21804;SDS011;11064;47.102;15.452;2022-08-20T13:34:57;0.08;;;0.08;;
21804;SDS011;11064;47.102;15.452;2022-08-20T13:37:24;0.10;;;0.10;;
21804;SDS011;11064;47.102;15.452;2022-08-20T13:39:52;0.30;;;0.17;;
21804;SDS011;11064;47.102;15.452;2022-08-20T13:42:19;0.20;;;0.08;;
21804;SDS011;11064;47.102;15.452;2022-08-20T13:44:44;1.60;;;0.10;;
21804;SDS011;11064;47.102;15.452;2022-08-20T13:49:48;0.00;;;0.00;;
21804;SDS011;11064;47.102;15.452;2022-08-20T13:52:19;0.03;;;0.03;;
21804;SDS011;11064;47.102;15.452;2022-08-20T13:54:45;0.38;;;0.05;;
21804;SDS011;11064;47.102;15.452;2022-08-20T13:57:11;0.30;;;0.10;;
21804;SDS011;11064;47.102;15.452;2022-08-20T13:59:40;0.05;;;0.05;;
21804;SDS011;11064;47.102;15.452;2022-08-20T14:02:08;0.10;;;0.10;;
21804;SDS011;11064;47.102;15.452;2022-08-20T14:04:35;0.15;;;0.10;;
21804;SDS011;11064;47.102;15.452;2022-08-20T14:07:21;0.73;;;0.10;;
21804;SDS011;11064;47.102;15.452;2022-08-20T14:09:51;0.10;;;0.10;;
21804;SDS011;11064;47.102;15.452;2022-08-20T14:12:19;0.10;;;0.10;;
21804;SDS011;11064;47.102;15.452;2022-08-20T14:14:47;0.10;;;0.10;;
21804;SDS011;11064;47.102;15.452;2022-08-20T14:19:41;0.98;;;0.47;;
21804;SDS011;11064;47.102;15.452;2022-08-20T14:22:08;0.10;;;0.10;;
21804;SDS011;11064;47.102;15.452;2022-08-20T14:24:34;0.15;;;0.15;;
21804;SDS011;11064;47.102;15.452;2022-08-20T14:27:03;0.03;;;0.03;;
21804;SDS011;11064;47.102;15.452;2022-08-20T14:29:33;0.30;;;0.10;;
21804;SDS011;11064;47.102;15.452;2022-08-20T14:32:00;0.10;;;0.10;;
21804;SDS011;11064;47.102;15.452;2022-08-20T14:34:27;1.75;;;0.20;;
21804;SDS011;11064;47.102;15.452;2022-08-20T14:36:52;0.17;;;0.17;;
21804;SDS011;11064;47.102;15.452;2022-08-20T14:39:18;0.38;;;0.25;;
21804;SDS011;11064;47.102;15.452;2022-08-20T14:41:44;0.13;;;0.13;;
21804;SDS011;11064;47.102;15.452;2022-08-20T14:44:10;0.20;;;0.20;;
21804;SDS011;11064;47.102;15.452;2022-08-20T14:46:36;1.88;;;0.30;;
21804;SDS011;11064;47.102;15.452;2022-08-20T14:49:02;0.22;;;0.20;;
21804;SDS011;11064;47.102;15.452;2022-08-20T14:51:27;0.20;;;0.17;;
21804;SDS011;11064;47.102;15.452;2022-08-20T14:53:53;0.52;;;0.30;;
21804;SDS011;11064;47.102;15.452;2022-08-20T14:56:19;1.10;;;0.28;;
21804;SDS011;11064;47.102;15.452;2022-08-20T14:58:45;0.30;;;0.30;;
21804;SDS011;11064;47.102;15.452;2022-08-20T15:01:10;0.30;;;0.30;;
21804;SDS011;11064;47.102;15.452;2022-08-20T15:03:36;0.30;;;0.30;;
21804;SDS011;11064;47.102;15.452;2022-08-20T15:06:02;0.38;;;0.38;;
21804;SDS011;11064;47.102;15.452;2022-08-20T15:08:28;0.73;;;0.40;;
21804;SDS011;11064;47.102;15.452;2022-08-20T15:10:53;0.40;;;0.30;;
21804;SDS011;11064;47.102;15.452;2022-08-20T15:13:19;0.38;;;0.38;;
21804;SDS011;11064;47.102;15.452;2022-08-20T15:15:45;0.85;;;0.40;;
21804;SDS011;11064;47.102;15.452;2022-08-20T15:18:11;0.40;;;0.40;;
21804;SDS011;11064;47.102;15.452;2022-08-20T15:20:36;0.70;;;0.40;;
21804;SDS011;11064;47.102;15.452;2022-08-20T15:23:03;0.50;;;0.50;;
21804;SDS011;11064;47.102;15.452;2022-08-20T15:25:30;0.50;;;0.50;;
21804;SDS011;11064;47.102;15.452;2022-08-20T15:27:58;0.47;;;0.47;;
21804;SDS011;11064;47.102;15.452;2022-08-20T15:30:26;0.43;;;0.43;;
21804;SDS011;11064;47.102;15.452;2022-08-20T15:32:54;0.70;;;0.50;;
21804;SDS011;11064;47.102;15.452;2022-08-20T15:35:20;0.43;;;0.43;;
21804;SDS011;11064;47.102;15.452;2022-08-20T15:37:48;0.50;;;0.50;;
21804;SDS011;11064;47.102;15.452;2022-08-20T15:40:16;0.55;;;0.50;;
21804;SDS011;11064;47.102;15.452;2022-08-20T15:42:45;0.75;;;0.60;;
21804;SDS011;11064;47.102;15.452;2022-08-20T15:45:11;0.60;;;0.60;;
21804;SDS011;11064;47.102;15.452;2022-08-20T15:50:10;0.68;;;0.68;;
21804;SDS011;11064;47.102;15.452;2022-08-20T15:52:42;0.60;;;0.60;;
21804;SDS011;11064;47.102;15.452;2022-08-20T15:55:12;0.50;;;0.50;;
21804;SDS011;11064;47.102;15.452;2022-08-20T15:57:43;0.80;;;0.80;;
21804;SDS011;11064;47.102;15.452;2022-08-20T16:00:20;0.88;;;0.80;;
21804;SDS011;11064;47.102;15.452;2022-08-20T16:02:51;0.60;;;0.60;;
21804;SDS011;11064;47.102;15.452;2022-08-20T16:05:41;0.77;;;0.70;;
21804;SDS011;11064;47.102;15.452;2022-08-20T16:16:02;1.90;;;0.70;;
21804;SDS011;11064;47.102;15.452;2022-08-20T16:18:35;0.70;;;0.70;;
21804;SDS011;11064;47.102;15.452;2022-08-20T16:21:05;0.80;;;0.80;;
21804;SDS011;11064;47.102;15.452;2022-08-20T16:23:36;0.70;;;0.70;;
21804;SDS011;11064;47.102;15.452;2022-08-20T16:29:09;1.48;;;0.60;;
21804;SDS011;11064;47.102;15.452;2022-08-20T16:31:47;0.75;;;0.73;;
21804;SDS011;11064;47.102;15.452;2022-08-20T16:34:26;0.57;;;0.57;;
21804;SDS011;11064;47.102;15.452;2022-08-20T16:42:24;0.60;;;0.60;;
21804;SDS011;11064;47.102;15.452;2022-08-20T16:44:56;0.68;;;0.63;;
21804;SDS011;11064;47.102;15.452;2022-08-20T16:47:30;0.85;;;0.63;;
21804;SDS011;11064;47.102;15.452;2022-08-20T16:50:03;0.77;;;0.70;;
21804;SDS011;11064;47.102;15.452;2022-08-20T16:52:48;0.80;;;0.70;;
21804;SDS011;11064;47.102;15.452;2022-08-20T16:55:16;0.75;;;0.75;;
21804;SDS011;11064;47.102;15.452;2022-08-20T16:57:44;1.65;;;0.65;;
21804;SDS011;11064;47.102;15.452;2022-08-20T17:02:56;0.70;;;0.60;;
21804;SDS011;11064;47.102;15.452;2022-08-20T17:05:25;0.73;;;0.60;;
21804;SDS011;11064;47.102;15.452;2022-08-20T17:08:07;0.80;;;0.68;;
21804;SDS011;11064;47.102;15.452;2022-08-20T17:10:51;0.70;;;0.70;;
21804;SDS011;11064;47.102;15.452;2022-08-20T17:13:28;0.80;;;0.80;;
21804;SDS011;11064;47.102;15.452;2022-08-20T17:21:31;0.70;;;0.70;;
21804;SDS011;11064;47.102;15.452;2022-08-20T17:23:57;1.52;;;0.80;;
21804;SDS011;11064;47.102;15.452;2022-08-20T17:26:40;0.90;;;0.90;;
21804;SDS011;11064;47.102;15.452;2022-08-20T17:29:13;1.20;;;0.70;;
21804;SDS011;11064;47.102;15.452;2022-08-20T17:31:46;0.77;;;0.77;;
21804;SDS011;11064;47.102;15.452;2022-08-20T17:39:16;1.00;;;0.90;;
21804;SDS011;11064;47.102;15.452;2022-08-20T17:41:46;0.98;;;0.80;;
21804;SDS011;11064;47.102;15.452;2022-08-20T17:44:19;0.80;;;0.80;;
21804;SDS011;11064;47.102;15.452;2022-08-20T17:46:57;0.60;;;0.60;;
21804;SDS011;11064;47.102;15.452;2022-08-20T17:49:32;0.85;;;0.80;;
21804;SDS011;11064;47.102;15.452;2022-08-20T17:52:31;0.80;;;0.80;;
21804;SDS011;11064;47.102;15.452;2022-08-20T17:54:58;1.10;;;0.70;;
21804;SDS011;11064;47.102;15.452;2022-08-20T17:57:34;1.10;;;1.00;;
21804;SDS011;11064;47.102;15.452;2022-08-20T18:00:12;1.00;;;0.80;;
21804;SDS011;11064;47.102;15.452;2022-08-20T18:02:42;1.13;;;1.00;;
21804;SDS011;11064;47.102;15.452;2022-08-20T18:05:10;1.58;;;0.90;;
21804;SDS011;11064;47.102;15.452;2022-08-20T18:10:27;2.30;;;0.90;;
21804;SDS011;11064;47.102;15.452;2022-08-20T18:15:37;0.85;;;0.80;;
21804;SDS011;11064;47.102;15.452;2022-08-20T18:23:59;1.00;;;0.90;;
21804;SDS011;11064;47.102;15.452;2022-08-20T18:26:15;1.05;;;1.00;;
21804;SDS011;11064;47.102;15.452;2022-08-20T18:28:49;1.88;;;1.70;;
21804;SDS011;11064;47.102;15.452;2022-08-20T18:31:31;1.30;;;1.20;;
21804;SDS011;11064;47.102;15.452;2022-08-20T18:34:14;1.58;;;1.48;;
21804;SDS011;11064;47.102;15.452;2022-08-20T18:36:52;1.88;;;1.00;;
21804;SDS011;11064;47.102;15.452;2022-08-20T18:39:44;0.88;;;0.80;;
21804;SDS011;11064;47.102;15.452;2022-08-20T18:42:24;1.55;;;1.10;;
21804;SDS011;11064;47.102;15.452;2022-08-20T18:44:55;1.23;;;1.13;;
21804;SDS011;11064;47.102;15.452;2022-08-20T18:52:31;1.15;;;1.00;;
21804;SDS011;11064;47.102;15.452;2022-08-20T18:55:25;1.30;;;1.00;;
21804;SDS011;11064;47.102;15.452;2022-08-20T18:57:58;1.33;;;1.00;;
21804;SDS011;11064;47.102;15.452;2022-08-20T19:00:48;2.40;;;1.10;;
21804;SDS011;11064;47.102;15.452;2022-08-20T19:03:30;1.30;;;1.20;;
21804;SDS011;11064;47.102;15.452;2022-08-20T19:06:15;1.55;;;1.45;;
21804;SDS011;11064;47.102;15.452;2022-08-20T19:20:22;0.80;;;0.80;;
21804;SDS011;11064;47.102;15.452;2022-08-20T19:22:51;0.60;;;0.60;;
21804;SDS011;11064;47.102;15.452;2022-08-20T19:25:27;1.00;;;0.90;;
21804;SDS011;11064;47.102;15.452;2022-08-20T19:27:56;0.80;;;0.80;;
21804;SDS011;11064;47.102;15.452;2022-08-20T19:30:35;1.23;;;0.82;;
21804;SDS011;11064;47.102;15.452;2022-08-20T19:33:04;0.75;;;0.73;;
21804;SDS011;11064;47.102;15.452;2022-08-20T19:35:31;1.10;;;0.60;;
21804;SDS011;11064;47.102;15.452;2022-08-20T19:37:58;1.00;;;0.60;;
21804;SDS011;11064;47.102;15.452;2022-08-20T19:40:31;0.63;;;0.63;;
21804;SDS011;11064;47.102;15.452;2022-08-20T19:43:02;0.93;;;0.80;;
21804;SDS011;11064;47.102;15.452;2022-08-20T19:45:37;0.70;;;0.70;;
21804;SDS011;11064;47.102;15.452;2022-08-20T19:50:49;0.70;;;0.70;;
21804;SDS011;11064;47.102;15.452;2022-08-20T19:53:31;0.70;;;0.70;;
21804;SDS011;11064;47.102;15.452;2022-08-20T19:56:20;0.70;;;0.70;;
21804;SDS011;11064;47.102;15.452;2022-08-20T19:59:02;0.60;;;0.60;;
21804;SDS011;11064;47.102;15.452;2022-08-20T20:01:30;0.90;;;0.73;;
21804;SDS011;11064;47.102;15.452;2022-08-20T20:04:02;1.00;;;0.90;;
21804;SDS011;11064;47.102;15.452;2022-08-20T20:06:32;1.00;;;0.90;;
21804;SDS011;11064;47.102;15.452;2022-08-20T20:09:02;0.63;;;0.60;;
21804;SDS011;11064;47.102;15.452;2022-08-20T20:11:46;1.75;;;0.70;;
21804;SDS011;11064;47.102;15.452;2022-08-20T20:14:16;1.02;;;0.77;;
21804;SDS011;11064;47.102;15.452;2022-08-20T20:16:47;0.90;;;0.75;;
21804;SDS011;11064;47.102;15.452;2022-08-20T20:19:15;0.82;;;0.70;;
21804;SDS011;11064;47.102;15.452;2022-08-20T20:21:43;0.85;;;0.70;;
21804;SDS011;11064;47.102;15.452;2022-08-20T20:24:25;0.65;;;0.65;;
21804;SDS011;11064;47.102;15.452;2022-08-20T20:26:55;0.93;;;0.60;;
21804;SDS011;11064;47.102;15.452;2022-08-20T20:29:24;0.95;;;0.70;;
21804;SDS011;11064;47.102;15.452;2022-08-20T20:31:53;0.63;;;0.45;;
21804;SDS011;11064;47.102;15.452;2022-08-20T20:34:26;0.75;;;0.65;;
21804;SDS011;11064;47.102;15.452;2022-08-20T20:37:02;0.65;;;0.55;;
21804;SDS011;11064;47.102;15.452;2022-08-20T20:39:36;0.98;;;0.60;;
21804;SDS011;11064;47.102;15.452;2022-08-20T20:42:04;0.63;;;0.63;;
21804;SDS011;11064;47.102;15.452;2022-08-20T20:44:36;1.40;;;0.60;;
21804;SDS011;11064;47.102;15.452;2022-08-20T20:47:05;0.70;;;0.70;;
21804;SDS011;11064;47.102;15.452;2022-08-20T20:52:28;0.63;;;0.63;;
21804;SDS011;11064;47.102;15.452;2022-08-20T20:55:05;0.73;;;0.55;;
21804;SDS011;11064;47.102;15.452;2022-08-20T20:57:37;0.50;;;0.50;;
21804;SDS011;11064;47.102;15.452;2022-08-20T21:00:05;0.50;;;0.50;;